UAL1182 EDDF-LGAV
Flight info
| Callsign | UAL1182 |
|---|---|
| Flight time | N/A |
| Altitude | 37000 |
| Route | CINDY8S/18 CINDY Z74 LAMPU DCT NOMBO Y161 MAH/N0455F390 L173 OTT M867 RADIZ DCT NEMEK DCT GLOMY DCT INLOT DCT PINDO UL607 XORKI XORKI1Q |
| Aircraft | A339/H-SDE3FGHIRWY/S |
Departure
| Time | 2026-05-01 13:57 |
|---|---|
| Airport | Frankfurt Main Airport (EDDF) |
Arrival
| Time | N/A |
|---|---|
| Airport | Athens Eleftherios Venizelos International Airport (LGAV) |
| Time | Latitude | Longitude | Altitude | Speed | Heading |
|---|---|---|---|---|---|
| 2026-05-01 13:44 | 50.03872 | 8.54785 | 359 ft | 0 kts | 160° |
| 2026-05-01 13:52 | 50.03863 | 8.54790 | 359 ft | 3 kts | 159° |
| 2026-05-01 13:53 | 50.03827 | 8.54812 | 359 ft | 7 kts | 162° |
| 2026-05-01 13:53 | 50.03757 | 8.54739 | 358 ft | 7 kts | 253° |
| 2026-05-01 13:53 | 50.03738 | 8.54649 | 357 ft | 10 kts | 252° |
| 2026-05-01 13:54 | 50.03711 | 8.54534 | 357 ft | 12 kts | 249° |
| 2026-05-01 13:54 | 50.03678 | 8.54401 | 356 ft | 14 kts | 249° |
| 2026-05-01 13:54 | 50.03642 | 8.54258 | 355 ft | 15 kts | 249° |
| 2026-05-01 13:54 | 50.03604 | 8.54096 | 354 ft | 16 kts | 251° |
| 2026-05-01 13:55 | 50.03565 | 8.53923 | 353 ft | 17 kts | 249° |
| 2026-05-01 13:55 | 50.03521 | 8.53739 | 352 ft | 18 kts | 250° |
| 2026-05-01 13:55 | 50.03476 | 8.53555 | 351 ft | 19 kts | 249° |
| 2026-05-01 13:55 | 50.03403 | 8.53250 | 350 ft | 38 kts | 250° |
| 2026-05-01 13:56 | 50.03314 | 8.52883 | 349 ft | 36 kts | 250° |
| 2026-05-01 13:56 | 50.03262 | 8.52663 | 348 ft | 13 kts | 246° |
| 2026-05-01 13:56 | 50.03198 | 8.52601 | 348 ft | 29 kts | 191° |
| 2026-05-01 13:56 | 50.02754 | 8.52601 | 346 ft | 97 kts | 180° |
| 2026-05-01 13:57 | 50.01887 | 8.52622 | 344 ft | 151 kts | 180° |
| 2026-05-01 13:57 | 50.01134 | 8.52601 | 435 ft | 172 kts | 176° |
| 2026-05-01 13:57 | 49.99526 | 8.52583 | 1297 ft | 170 kts | 174° |
| 2026-05-01 13:57 | 49.98386 | 8.52596 | 2062 ft | 162 kts | 174° |
| 2026-05-01 13:58 | 49.97268 | 8.52710 | 2576 ft | 167 kts | 158° |
| 2026-05-01 13:58 | 49.96273 | 8.53715 | 2956 ft | 179 kts | 125° |
| 2026-05-01 13:58 | 49.95611 | 8.55461 | 3388 ft | 196 kts | 119° |
| 2026-05-01 13:58 | 49.94939 | 8.57370 | 3796 ft | 212 kts | 119° |
| 2026-05-01 13:59 | 49.94304 | 8.59497 | 4323 ft | 220 kts | 108° |
| 2026-05-01 13:59 | 49.94008 | 8.61850 | 4872 ft | 230 kts | 97° |
| 2026-05-01 13:59 | 49.93891 | 8.64420 | 5230 ft | 248 kts | 95° |
| 2026-05-01 13:59 | 49.93788 | 8.67131 | 5698 ft | 260 kts | 98° |
| 2026-05-01 14:00 | 49.93201 | 8.69756 | 6361 ft | 261 kts | 126° |
| 2026-05-01 14:00 | 49.91894 | 8.71692 | 7105 ft | 262 kts | 144° |
| 2026-05-01 14:00 | 49.90395 | 8.73314 | 7800 ft | 266 kts | 144° |
| 2026-05-01 14:00 | 49.88955 | 8.75097 | 8480 ft | 269 kts | 134° |
| 2026-05-01 14:01 | 49.87798 | 8.77308 | 9187 ft | 271 kts | 122° |
| 2026-05-01 14:01 | 49.86837 | 8.79851 | 9925 ft | 274 kts | 119° |
| 2026-05-01 14:01 | 49.85915 | 8.82422 | 10513 ft | 282 kts | 118° |
| 2026-05-01 14:01 | 49.84930 | 8.85176 | 10858 ft | 300 kts | 118° |
| 2026-05-01 14:02 | 49.83890 | 8.88066 | 11174 ft | 318 kts | 118° |
| 2026-05-01 14:02 | 49.82784 | 8.91124 | 11645 ft | 330 kts | 118° |
| 2026-05-01 14:02 | 49.81656 | 8.94232 | 12349 ft | 334 kts | 118° |
| 2026-05-01 14:02 | 49.80511 | 8.97379 | 13068 ft | 338 kts | 118° |
| 2026-05-01 14:03 | 49.79358 | 9.00544 | 13762 ft | 342 kts | 118° |
| 2026-05-01 14:03 | 49.78180 | 9.03773 | 14494 ft | 345 kts | 118° |
| 2026-05-01 14:03 | 49.77050 | 9.07033 | 15206 ft | 349 kts | 115° |
| 2026-05-01 14:03 | 49.76009 | 9.10422 | 15916 ft | 352 kts | 114° |
| 2026-05-01 14:04 | 49.74984 | 9.13843 | 16606 ft | 356 kts | 114° |
| 2026-05-01 14:04 | 49.73873 | 9.17310 | 17309 ft | 360 kts | 116° |
| 2026-05-01 14:04 | 49.72662 | 9.20657 | 17987 ft | 364 kts | 120° |
| 2026-05-01 14:04 | 49.71760 | 9.22907 | 18439 ft | 367 kts | 121° |
| 2026-05-01 14:05 | 49.69816 | 9.27206 | 19314 ft | 373 kts | 125° |
| 2026-05-01 14:05 | 49.68182 | 9.30370 | 19958 ft | 378 kts | 128° |
| 2026-05-01 14:05 | 49.66464 | 9.33403 | 20578 ft | 382 kts | 130° |
| 2026-05-01 14:05 | 49.64681 | 9.36473 | 21186 ft | 386 kts | 130° |
| 2026-05-01 14:06 | 49.62825 | 9.39455 | 21763 ft | 391 kts | 135° |
| 2026-05-01 14:06 | 49.60734 | 9.42193 | 22342 ft | 396 kts | 141° |
| 2026-05-01 14:06 | 49.58444 | 9.44581 | 22913 ft | 401 kts | 146° |
| 2026-05-01 14:06 | 49.56060 | 9.46792 | 23456 ft | 405 kts | 147° |
| 2026-05-01 14:07 | 49.53618 | 9.49013 | 23974 ft | 409 kts | 147° |
| 2026-05-01 14:07 | 49.51174 | 9.51230 | 24480 ft | 413 kts | 147° |
| 2026-05-01 14:07 | 49.48662 | 9.53511 | 24982 ft | 416 kts | 147° |
| 2026-05-01 14:08 | 49.43682 | 9.58041 | 26021 ft | 420 kts | 147° |
| 2026-05-01 14:08 | 49.41170 | 9.60324 | 26476 ft | 424 kts | 147° |
| 2026-05-01 14:08 | 49.38633 | 9.62630 | 26914 ft | 427 kts | 147° |
| 2026-05-01 14:08 | 49.36118 | 9.65017 | 27339 ft | 429 kts | 144° |
| 2026-05-01 14:09 | 49.33708 | 9.67716 | 27757 ft | 431 kts | 140° |
| 2026-05-01 14:09 | 49.31432 | 9.70739 | 28170 ft | 433 kts | 135° |
| 2026-05-01 14:09 | 49.29282 | 9.73975 | 28576 ft | 435 kts | 133° |
| 2026-05-01 14:09 | 49.27137 | 9.77262 | 28967 ft | 438 kts | 133° |
| 2026-05-01 14:10 | 49.24993 | 9.80551 | 29348 ft | 441 kts | 133° |
| 2026-05-01 14:10 | 49.22804 | 9.83901 | 29726 ft | 444 kts | 133° |
| 2026-05-01 14:10 | 49.20634 | 9.87209 | 30098 ft | 446 kts | 133° |
| 2026-05-01 14:10 | 49.18438 | 9.90549 | 30462 ft | 449 kts | 133° |
| 2026-05-01 14:11 | 49.16213 | 9.93928 | 30808 ft | 451 kts | 133° |
| 2026-05-01 14:11 | 49.11733 | 10.00711 | 31463 ft | 457 kts | 133° |
| 2026-05-01 14:11 | 49.09445 | 10.04168 | 31775 ft | 460 kts | 133° |
| 2026-05-01 14:12 | 49.07159 | 10.07615 | 32084 ft | 462 kts | 133° |
| 2026-05-01 14:12 | 49.04884 | 10.10983 | 32380 ft | 465 kts | 135° |
| 2026-05-01 14:12 | 49.02512 | 10.14347 | 32761 ft | 466 kts | 135° |
| 2026-05-01 14:12 | 49.00106 | 10.17713 | 33213 ft | 464 kts | 135° |
| 2026-05-01 14:13 | 48.97763 | 10.20995 | 33634 ft | 463 kts | 135° |
| 2026-05-01 14:13 | 48.96182 | 10.23217 | 33898 ft | 463 kts | 135° |
| 2026-05-01 14:13 | 48.93032 | 10.27657 | 34396 ft | 463 kts | 135° |
| 2026-05-01 14:13 | 48.90673 | 10.30987 | 34778 ft | 463 kts | 135° |
| 2026-05-01 14:14 | 48.88335 | 10.34289 | 35167 ft | 463 kts | 135° |
| 2026-05-01 14:14 | 48.85973 | 10.37615 | 35562 ft | 462 kts | 135° |
| 2026-05-01 14:14 | 48.83614 | 10.40951 | 35910 ft | 462 kts | 134° |
| 2026-05-01 14:14 | 48.81367 | 10.44390 | 36195 ft | 462 kts | 131° |
| 2026-05-01 14:15 | 48.79176 | 10.47906 | 36455 ft | 464 kts | 131° |
| 2026-05-01 14:15 | 48.76944 | 10.51484 | 36722 ft | 465 kts | 131° |
| 2026-05-01 14:15 | 48.74720 | 10.55043 | 37002 ft | 466 kts | 131° |
| 2026-05-01 14:15 | 48.72507 | 10.58579 | 37258 ft | 467 kts | 131° |
| 2026-05-01 14:16 | 48.68011 | 10.65742 | 37305 ft | 469 kts | 131° |
| 2026-05-01 14:16 | 48.63516 | 10.72883 | 37311 ft | 469 kts | 131° |
| 2026-05-01 14:17 | 48.59041 | 10.79975 | 37317 ft | 469 kts | 131° |
| 2026-05-01 14:17 | 48.54548 | 10.87153 | 37323 ft | 469 kts | 131° |
| 2026-05-01 14:18 | 48.50088 | 10.94287 | 37324 ft | 469 kts | 131° |
| 2026-05-01 14:18 | 48.46314 | 11.00237 | 37324 ft | 470 kts | 131° |
| 2026-05-01 14:19 | 48.41022 | 11.08462 | 37320 ft | 470 kts | 131° |
| 2026-05-01 14:19 | 48.36512 | 11.15464 | 37315 ft | 469 kts | 131° |
| 2026-05-01 14:20 | 48.30029 | 11.26358 | 37316 ft | 465 kts | 122° |
| 2026-05-01 14:21 | 48.26686 | 11.34641 | 37308 ft | 461 kts | 112° |
| 2026-05-01 14:21 | 48.24343 | 11.43489 | 37303 ft | 457 kts | 103° |
| 2026-05-01 14:22 | 48.22059 | 11.57231 | 37300 ft | 455 kts | 100° |
| 2026-05-01 14:22 | 48.20560 | 11.66475 | 37303 ft | 455 kts | 101° |
| 2026-05-01 14:23 | 48.18588 | 11.75058 | 37303 ft | 459 kts | 111° |
| 2026-05-01 14:23 | 48.15315 | 11.83723 | 37303 ft | 464 kts | 122° |
| 2026-05-01 14:24 | 48.11177 | 11.91141 | 37297 ft | 468 kts | 131° |
| 2026-05-01 14:24 | 48.06424 | 11.97746 | 37297 ft | 469 kts | 134° |
| 2026-05-01 14:25 | 48.01606 | 12.04292 | 37293 ft | 469 kts | 134° |
| 2026-05-01 14:25 | 47.96776 | 12.10876 | 37293 ft | 469 kts | 134° |
| 2026-05-01 14:26 | 47.89421 | 12.20481 | 37310 ft | 471 kts | 136° |
| 2026-05-01 14:27 | 47.84414 | 12.26778 | 37319 ft | 471 kts | 136° |
| 2026-05-01 14:27 | 47.79436 | 12.33019 | 37321 ft | 470 kts | 136° |
| 2026-05-01 14:28 | 47.71928 | 12.42397 | 37335 ft | 471 kts | 136° |
| 2026-05-01 14:28 | 47.66889 | 12.48626 | 37337 ft | 472 kts | 136° |
| 2026-05-01 14:29 | 47.61887 | 12.54935 | 37335 ft | 470 kts | 133° |
| 2026-05-01 14:30 | 47.52487 | 12.68220 | 37335 ft | 469 kts | 132° |
| 2026-05-01 14:31 | 47.47572 | 12.75155 | 37341 ft | 469 kts | 132° |
| 2026-05-01 14:35 | 47.46965 | 12.76010 | 37341 ft | 470 kts | 132° |
| 2026-05-01 14:35 | 47.46919 | 12.76075 | 37341 ft | 470 kts | 132° |
| 2026-05-01 14:37 | 47.43167 | 12.81350 | 37345 ft | 470 kts | 132° |
| 2026-05-01 14:38 | 47.38468 | 12.87945 | 37347 ft | 470 kts | 132° |
| 2026-05-01 14:38 | 47.36293 | 12.90993 | 37347 ft | 469 kts | 132° |
| 2026-05-01 14:39 | 47.34368 | 12.93686 | 37349 ft | 469 kts | 132° |
| 2026-05-01 14:39 | 47.31690 | 12.97428 | 37348 ft | 469 kts | 132° |
| 2026-05-01 14:39 | 47.29349 | 13.00695 | 37017 ft | 470 kts | 132° |
| 2026-05-01 14:40 | 47.26967 | 13.04015 | 37236 ft | 471 kts | 132° |
| 2026-05-01 14:40 | 47.23878 | 13.08315 | 37332 ft | 471 kts | 132° |
| 2026-05-01 14:41 | 47.19115 | 13.14926 | 37346 ft | 471 kts | 132° |
| 2026-05-01 14:41 | 47.14366 | 13.21502 | 37327 ft | 471 kts | 131° |
| 2026-05-01 14:42 | 47.09631 | 13.28045 | 37324 ft | 471 kts | 131° |
| 2026-05-01 14:42 | 47.04842 | 13.34643 | 37319 ft | 471 kts | 131° |
| 2026-05-01 14:43 | 47.00073 | 13.41196 | 37313 ft | 471 kts | 131° |
| 2026-05-01 14:43 | 46.95335 | 13.47693 | 37305 ft | 472 kts | 131° |
| 2026-05-01 14:44 | 46.90560 | 13.54222 | 37306 ft | 471 kts | 131° |
| 2026-05-01 14:44 | 46.83369 | 13.64024 | 37316 ft | 471 kts | 131° |
| 2026-05-01 14:45 | 46.76172 | 13.73797 | 37324 ft | 473 kts | 132° |
| 2026-05-01 14:46 | 46.71368 | 13.80297 | 37324 ft | 473 kts | 131° |
| 2026-05-01 14:46 | 46.64145 | 13.90045 | 37324 ft | 475 kts | 132° |
| 2026-05-01 14:47 | 46.59312 | 13.96542 | 37326 ft | 474 kts | 131° |
| 2026-05-01 14:48 | 46.52074 | 14.06242 | 37321 ft | 473 kts | 131° |
| 2026-05-01 14:48 | 46.44795 | 14.15963 | 37318 ft | 474 kts | 131° |
| 2026-05-01 14:49 | 46.35097 | 14.28860 | 37316 ft | 475 kts | 131° |
| 2026-05-01 14:50 | 46.25380 | 14.41714 | 37312 ft | 474 kts | 131° |
| 2026-05-01 14:51 | 46.18103 | 14.51299 | 37304 ft | 474 kts | 131° |
| 2026-05-01 14:52 | 46.10789 | 14.60896 | 37310 ft | 474 kts | 131° |
| 2026-05-01 14:53 | 46.03483 | 14.70448 | 37301 ft | 475 kts | 131° |
| 2026-05-01 14:53 | 45.98606 | 14.76804 | 37289 ft | 474 kts | 131° |
| 2026-05-01 14:54 | 45.93724 | 14.83149 | 37292 ft | 475 kts | 131° |
| 2026-05-01 14:54 | 45.88806 | 14.89527 | 37286 ft | 474 kts | 131° |
| 2026-05-01 14:55 | 45.83938 | 14.95828 | 37283 ft | 475 kts | 131° |
| 2026-05-01 14:55 | 45.79037 | 15.02152 | 37278 ft | 474 kts | 131° |
| 2026-05-01 14:56 | 45.74150 | 15.08442 | 37283 ft | 473 kts | 131° |
| 2026-05-01 14:56 | 45.69236 | 15.14752 | 37288 ft | 473 kts | 131° |
| 2026-05-01 14:57 | 45.64371 | 15.20989 | 37286 ft | 473 kts | 131° |
| 2026-05-01 14:57 | 45.56990 | 15.30412 | 37284 ft | 474 kts | 131° |
| 2026-05-01 14:58 | 45.52006 | 15.36556 | 37275 ft | 474 kts | 132° |
| 2026-05-01 14:58 | 45.47011 | 15.42652 | 37277 ft | 474 kts | 131° |
| 2026-05-01 14:59 | 45.42043 | 15.48716 | 37292 ft | 474 kts | 131° |
| 2026-05-01 14:59 | 45.37022 | 15.54838 | 37260 ft | 474 kts | 131° |
| 2026-05-01 15:00 | 45.29519 | 15.63969 | 37270 ft | 475 kts | 131° |
| 2026-05-01 15:01 | 45.24506 | 15.70049 | 37275 ft | 475 kts | 132° |
| 2026-05-01 15:01 | 45.19487 | 15.76119 | 37276 ft | 475 kts | 132° |
| 2026-05-01 15:02 | 45.14432 | 15.82221 | 37288 ft | 475 kts | 132° |
| 2026-05-01 15:02 | 45.09430 | 15.88249 | 37278 ft | 476 kts | 132° |
| 2026-05-01 15:03 | 45.04364 | 15.94334 | 37278 ft | 476 kts | 133° |
| 2026-05-01 15:03 | 44.99301 | 16.00401 | 37296 ft | 476 kts | 133° |
| 2026-05-01 15:04 | 44.94256 | 16.06433 | 37259 ft | 477 kts | 133° |
| 2026-05-01 15:04 | 44.89245 | 16.12409 | 37286 ft | 477 kts | 133° |
| 2026-05-01 15:05 | 44.84177 | 16.18439 | 37283 ft | 478 kts | 133° |
| 2026-05-01 15:05 | 44.79111 | 16.24454 | 37275 ft | 478 kts | 133° |
| 2026-05-01 15:06 | 44.74014 | 16.30489 | 37245 ft | 479 kts | 133° |
| 2026-05-01 15:06 | 44.68943 | 16.36480 | 37255 ft | 480 kts | 133° |
| 2026-05-01 15:07 | 44.63840 | 16.42494 | 37247 ft | 481 kts | 133° |
| 2026-05-01 15:07 | 44.58725 | 16.48505 | 37264 ft | 482 kts | 133° |
| 2026-05-01 15:08 | 44.53595 | 16.54520 | 37257 ft | 480 kts | 133° |
| 2026-05-01 15:08 | 44.51022 | 16.57532 | 37368 ft | 481 kts | 133° |
| 2026-05-01 15:08 | 44.48483 | 16.60507 | 37316 ft | 480 kts | 134° |
| 2026-05-01 15:09 | 44.43353 | 16.66492 | 37269 ft | 479 kts | 134° |
| 2026-05-01 15:09 | 44.38218 | 16.72475 | 37249 ft | 481 kts | 134° |
| 2026-05-01 15:10 | 44.33065 | 16.78464 | 37242 ft | 481 kts | 134° |
| 2026-05-01 15:10 | 44.25350 | 16.87403 | 37243 ft | 482 kts | 134° |
| 2026-05-01 15:11 | 44.17627 | 16.96320 | 37235 ft | 484 kts | 135° |
| 2026-05-01 15:12 | 44.12443 | 17.02283 | 37229 ft | 484 kts | 135° |
| 2026-05-01 15:12 | 44.04651 | 17.11227 | 37211 ft | 484 kts | 135° |
| 2026-05-01 15:14 | 43.91654 | 17.26078 | 37204 ft | 487 kts | 136° |
| 2026-05-01 15:14 | 43.83814 | 17.34986 | 37229 ft | 487 kts | 136° |
| 2026-05-01 15:15 | 43.73359 | 17.46831 | 37188 ft | 488 kts | 136° |
| 2026-05-01 15:16 | 43.62812 | 17.58720 | 37207 ft | 491 kts | 136° |
| 2026-05-01 15:18 | 43.49697 | 17.73690 | 37209 ft | 491 kts | 136° |
| 2026-05-01 15:19 | 43.39294 | 17.85862 | 37200 ft | 492 kts | 137° |
| 2026-05-01 15:19 | 43.31428 | 17.94999 | 37212 ft | 494 kts | 137° |
| 2026-05-01 15:20 | 43.23539 | 18.04127 | 37204 ft | 494 kts | 137° |
| 2026-05-01 15:21 | 43.18319 | 18.10154 | 37184 ft | 494 kts | 137° |
| 2026-05-01 15:21 | 43.13035 | 18.16238 | 37167 ft | 494 kts | 137° |
| 2026-05-01 15:22 | 43.05129 | 18.25309 | 37163 ft | 495 kts | 138° |
| 2026-05-01 15:22 | 42.99862 | 18.31338 | 37167 ft | 496 kts | 138° |
| 2026-05-01 15:23 | 42.94594 | 18.37354 | 37170 ft | 495 kts | 138° |
| 2026-05-01 15:23 | 42.89349 | 18.43331 | 37172 ft | 495 kts | 138° |
| 2026-05-01 15:24 | 42.84068 | 18.49332 | 37177 ft | 496 kts | 138° |
| 2026-05-01 15:24 | 42.78786 | 18.55320 | 37180 ft | 496 kts | 138° |
| 2026-05-01 15:25 | 42.73475 | 18.61331 | 37186 ft | 497 kts | 138° |
| 2026-05-01 15:25 | 42.68152 | 18.67340 | 37185 ft | 498 kts | 139° |
| 2026-05-01 15:26 | 42.62823 | 18.73343 | 37185 ft | 498 kts | 139° |
| 2026-05-01 15:26 | 42.57502 | 18.79322 | 37181 ft | 497 kts | 139° |
| 2026-05-01 15:27 | 42.52205 | 18.85260 | 37181 ft | 498 kts | 140° |
| 2026-05-01 15:28 | 42.44506 | 18.93866 | 37190 ft | 498 kts | 140° |
| 2026-05-01 15:28 | 42.39277 | 18.99698 | 37188 ft | 499 kts | 140° |
| 2026-05-01 15:29 | 42.31239 | 19.08632 | 37183 ft | 500 kts | 140° |
| 2026-05-01 15:30 | 42.21404 | 19.19527 | 37169 ft | 500 kts | 140° |
| 2026-05-01 15:31 | 42.04401 | 19.38259 | 37158 ft | 501 kts | 140° |
| 2026-05-01 15:32 | 41.93564 | 19.49927 | 37151 ft | 501 kts | 142° |
| 2026-05-01 15:34 | 41.76926 | 19.66939 | 37141 ft | 502 kts | 143° |